createdAt,value
2023-04-29T00:01:22.069Z,7.93
2023-04-29T00:03:50.707Z,7.99
2023-04-29T00:06:19.173Z,7.82
2023-04-29T00:08:47.516Z,7.85
2023-04-29T00:11:16.964Z,7.90
2023-04-29T00:13:45.152Z,7.91
2023-04-29T00:16:13.933Z,7.84
2023-04-29T00:18:42.639Z,7.80
2023-04-29T00:21:11.078Z,7.82
2023-04-29T00:23:39.163Z,7.88
2023-04-29T00:26:07.377Z,7.88
2023-04-29T00:28:37.121Z,7.90
2023-04-29T00:31:05.292Z,7.90
2023-04-29T00:33:33.754Z,7.90
2023-04-29T00:36:02.278Z,7.87
2023-04-29T00:38:30.793Z,7.87
2023-04-29T00:40:59.139Z,7.91
2023-04-29T00:43:27.428Z,7.90
2023-04-29T00:45:57.766Z,7.78
2023-04-29T00:48:27.350Z,7.80
2023-04-29T00:50:56.418Z,7.79
2023-04-29T00:53:24.887Z,7.79
2023-04-29T00:55:53.453Z,7.79
2023-04-29T00:58:22.847Z,7.78
2023-04-29T01:00:51.213Z,7.81
2023-04-29T01:03:20.922Z,7.79
2023-04-29T01:06:01.828Z,7.80
2023-04-29T01:08:39.170Z,7.81
2023-04-29T01:11:11.047Z,7.84
2023-04-29T01:13:46.853Z,7.82
2023-04-29T01:16:22.790Z,7.82
2023-04-29T01:18:56.468Z,7.80
2023-04-29T01:21:31.950Z,7.72
2023-04-29T01:24:02.007Z,7.74
2023-04-29T01:26:35.558Z,7.62
2023-04-29T01:29:33.960Z,7.58
2023-04-29T01:32:09.108Z,7.57
2023-04-29T01:34:45.635Z,7.52
2023-04-29T01:37:19.468Z,7.59
2023-04-29T01:39:59.520Z,7.57
2023-04-29T01:42:37.720Z,7.63
2023-04-29T01:45:12.737Z,7.73
2023-04-29T01:47:41.856Z,7.70
2023-04-29T01:50:10.788Z,7.67
2023-04-29T01:52:39.830Z,7.69
2023-04-29T01:55:11.244Z,7.71
2023-04-29T01:57:47.353Z,7.80
2023-04-29T02:00:29.320Z,7.80
2023-04-29T02:02:57.990Z,7.79
2023-04-29T02:05:36.021Z,7.81
2023-04-29T02:08:04.545Z,7.82
2023-04-29T02:10:35.996Z,7.82
2023-04-29T02:13:14.951Z,7.83
2023-04-29T02:15:43.766Z,7.81
2023-04-29T02:18:11.941Z,7.83
2023-04-29T02:20:42.188Z,7.75
2023-04-29T02:23:10.712Z,7.74
2023-04-29T02:25:40.476Z,7.74
2023-04-29T02:28:09.898Z,7.77
2023-04-29T02:30:41.102Z,7.76
2023-04-29T02:33:09.569Z,7.77
2023-04-29T02:35:37.930Z,7.79
2023-04-29T02:38:06.071Z,7.80
2023-04-29T02:40:34.210Z,7.85
2023-04-29T02:43:03.744Z,7.82
2023-04-29T02:45:32.048Z,7.85
2023-04-29T02:48:00.851Z,7.81
2023-04-29T02:50:47.896Z,7.80
2023-04-29T02:53:34.505Z,7.77
2023-04-29T02:56:02.848Z,7.81
2023-04-29T02:58:32.510Z,7.79
2023-04-29T03:01:00.797Z,7.77
2023-04-29T03:03:29.228Z,7.76
2023-04-29T03:05:57.642Z,7.81
2023-04-29T03:08:26.118Z,7.81
2023-04-29T03:10:54.266Z,7.83
2023-04-29T03:13:22.336Z,7.84
2023-04-29T03:15:52.070Z,7.81
2023-04-29T03:18:20.133Z,7.80
2023-04-29T03:20:49.379Z,7.78
2023-04-29T03:23:17.688Z,7.80
2023-04-29T03:25:45.984Z,7.75
2023-04-29T03:28:15.075Z,7.71
2023-04-29T03:30:43.386Z,7.66
2023-04-29T03:33:13.049Z,7.67
2023-04-29T03:35:41.237Z,7.68
2023-04-29T03:38:21.804Z,7.67
2023-04-29T03:40:50.622Z,7.59
2023-04-29T03:43:19.725Z,7.60
2023-04-29T03:45:48.244Z,7.64
2023-04-29T03:48:21.549Z,7.63
2023-04-29T03:50:50.324Z,7.67
2023-04-29T03:53:18.603Z,7.72
2023-04-29T03:55:48.604Z,7.68
2023-04-29T03:58:17.646Z,7.62
2023-04-29T04:00:46.259Z,7.62
2023-04-29T04:03:22.954Z,7.65
2023-04-29T04:05:51.822Z,7.64
2023-04-29T04:08:19.928Z,7.77
2023-04-29T04:11:04.767Z,7.74
2023-04-29T04:13:44.499Z,7.75
2023-04-29T04:16:13.057Z,7.72
2023-04-29T04:18:42.886Z,7.73
2023-04-29T04:21:12.264Z,7.71
2023-04-29T04:23:44.199Z,7.69
2023-04-29T04:26:15.663Z,7.71
2023-04-29T04:29:03.094Z,7.64
2023-04-29T04:31:41.554Z,7.66
2023-04-29T04:34:12.268Z,7.65
2023-04-29T04:36:41.478Z,7.69
2023-04-29T04:39:09.662Z,7.76
2023-04-29T04:41:38.008Z,7.72
2023-04-29T04:44:06.511Z,7.70
2023-04-29T04:46:43.410Z,7.70
2023-04-29T04:49:30.071Z,7.70
2023-04-29T04:51:58.822Z,7.72
2023-04-29T04:54:27.293Z,7.75
2023-04-29T04:57:06.276Z,7.72
2023-04-29T04:59:34.950Z,7.66
2023-04-29T05:02:04.374Z,7.66
2023-04-29T05:04:33.977Z,7.75
2023-04-29T05:07:02.414Z,8.01
2023-04-29T05:09:37.529Z,8.27
2023-04-29T05:12:05.987Z,8.47
2023-04-29T05:14:34.423Z,8.56
2023-04-29T05:17:03.170Z,8.49
2023-04-29T05:19:31.512Z,8.37
2023-04-29T05:22:01.350Z,8.44
2023-04-29T05:24:30.607Z,8.62
2023-04-29T05:26:58.757Z,8.80
2023-04-29T05:29:27.533Z,8.96
2023-04-29T05:32:00.023Z,9.22
2023-04-29T05:34:28.572Z,9.32
2023-04-29T05:36:57.566Z,9.09
2023-04-29T05:39:27.818Z,8.97
2023-04-29T05:42:07.981Z,8.83
2023-04-29T05:44:40.102Z,8.90
2023-04-29T05:47:08.391Z,9.31
2023-04-29T05:49:36.925Z,9.82
2023-04-29T05:52:06.742Z,10.12
2023-04-29T05:54:41.725Z,10.29
2023-04-29T05:57:10.030Z,10.25
2023-04-29T05:59:38.073Z,9.90
2023-04-29T06:02:07.553Z,9.74
2023-04-29T06:04:37.957Z,9.66
2023-04-29T06:07:18.894Z,9.34
2023-04-29T06:10:13.088Z,9.11
2023-04-29T06:12:44.091Z,9.00
2023-04-29T06:15:13.892Z,8.97
2023-04-29T06:17:42.439Z,8.92
2023-04-29T06:20:11.696Z,8.82
2023-04-29T06:22:41.270Z,8.78
2023-04-29T06:25:10.582Z,8.76
2023-04-29T06:27:51.047Z,8.73
2023-04-29T06:30:22.382Z,8.78
2023-04-29T06:32:50.616Z,8.87
2023-04-29T06:35:19.058Z,9.10
2023-04-29T06:38:08.305Z,9.37
2023-04-29T06:40:42.564Z,9.96
2023-04-29T06:43:17.929Z,10.19
2023-04-29T06:46:04.828Z,10.80
2023-04-29T06:48:41.904Z,10.79
2023-04-29T06:51:10.178Z,10.51
2023-04-29T06:53:39.756Z,10.07
2023-04-29T06:56:09.022Z,9.65
2023-04-29T06:58:38.610Z,9.47
2023-04-29T07:01:09.467Z,9.35
2023-04-29T07:03:38.067Z,9.33
2023-04-29T07:06:06.663Z,9.35
2023-04-29T07:08:34.913Z,9.47
2023-04-29T07:11:04.343Z,9.48
2023-04-29T07:13:32.856Z,9.54
2023-04-29T07:16:02.365Z,9.64
2023-04-29T07:18:30.414Z,9.58
2023-04-29T07:21:02.346Z,9.61
2023-04-29T07:23:30.582Z,9.45
2023-04-29T07:25:59.216Z,9.39
2023-04-29T07:28:27.956Z,9.36
2023-04-29T07:30:57.523Z,9.34
2023-04-29T07:33:27.231Z,9.36
2023-04-29T07:35:55.433Z,9.49
2023-04-29T07:38:23.755Z,9.57
2023-04-29T07:40:52.035Z,9.81
2023-04-29T07:43:20.494Z,9.97
2023-04-29T07:45:49.038Z,10.13
2023-04-29T07:48:17.358Z,10.51
2023-04-29T07:50:47.200Z,10.68
2023-04-29T07:53:17.489Z,10.65
2023-04-29T07:55:45.631Z,10.49
2023-04-29T07:58:14.186Z,10.17
2023-04-29T08:00:42.451Z,9.80
2023-04-29T08:03:11.231Z,9.70
2023-04-29T08:05:39.793Z,9.76
2023-04-29T08:08:09.655Z,9.78
2023-04-29T08:10:43.258Z,9.80
2023-04-29T08:13:11.608Z,9.61
2023-04-29T08:15:41.070Z,9.75
2023-04-29T08:18:09.283Z,9.88
2023-04-29T08:20:37.579Z,10.07
2023-04-29T08:23:05.922Z,10.23
2023-04-29T08:25:35.611Z,10.39
2023-04-29T08:28:04.099Z,10.54
2023-04-29T08:30:32.192Z,10.88
2023-04-29T08:33:00.620Z,10.85
2023-04-29T08:35:28.859Z,10.45
2023-04-29T08:37:57.859Z,10.38
2023-04-29T08:40:26.701Z,10.34
2023-04-29T08:42:57.186Z,10.19
2023-04-29T08:45:26.360Z,10.18
2023-04-29T08:47:56.597Z,10.06
2023-04-29T08:50:25.906Z,9.93
2023-04-29T08:52:54.690Z,9.90
2023-04-29T08:55:23.273Z,9.88
2023-04-29T08:57:53.940Z,9.82
2023-04-29T09:00:25.729Z,9.78
2023-04-29T09:02:57.786Z,10.06
2023-04-29T09:05:27.394Z,10.31
2023-04-29T09:07:59.759Z,10.52
2023-04-29T09:10:28.637Z,10.80
2023-04-29T09:12:58.278Z,10.65
2023-04-29T09:15:28.122Z,10.59
2023-04-29T09:17:57.418Z,10.47
2023-04-29T09:20:29.206Z,10.52
2023-04-29T09:22:59.228Z,10.51
2023-04-29T09:25:27.813Z,10.48
2023-04-29T09:27:57.170Z,10.33
2023-04-29T09:30:27.140Z,10.25
2023-04-29T09:33:07.608Z,10.02
2023-04-29T09:35:37.105Z,10.04
2023-04-29T09:38:13.622Z,10.07
2023-04-29T09:40:56.730Z,9.93
2023-04-29T09:43:26.524Z,9.80
2023-04-29T09:45:56.099Z,9.88
2023-04-29T09:48:33.767Z,9.95
2023-04-29T09:51:03.914Z,10.03
2023-04-29T09:53:33.084Z,10.31
2023-04-29T09:56:02.537Z,10.48
2023-04-29T09:58:34.202Z,10.88
2023-04-29T10:01:05.057Z,11.27
2023-04-29T10:03:35.177Z,11.56
2023-04-29T10:06:05.830Z,11.76
2023-04-29T10:08:35.394Z,11.55
2023-04-29T10:11:05.945Z,11.39
2023-04-29T10:13:38.555Z,11.58
2023-04-29T10:16:16.931Z,11.78
2023-04-29T10:18:53.454Z,12.22
2023-04-29T10:21:28.115Z,12.95
2023-04-29T10:23:58.688Z,13.76
2023-04-29T10:26:29.444Z,14.37
2023-04-29T10:29:00.025Z,13.31
2023-04-29T10:31:30.325Z,12.57
2023-04-29T10:34:00.608Z,12.53
2023-04-29T10:36:31.712Z,12.35
2023-04-29T10:39:06.208Z,12.03
2023-04-29T10:41:39.086Z,11.90
2023-04-29T10:44:07.741Z,12.65
2023-04-29T10:46:38.222Z,13.05
2023-04-29T10:49:08.346Z,12.02
2023-04-29T10:51:40.902Z,11.34
2023-04-29T10:54:11.129Z,11.14
2023-04-29T10:56:41.654Z,11.08
2023-04-29T10:59:14.459Z,11.23
2023-04-29T11:01:46.688Z,11.62
2023-04-29T11:04:15.402Z,11.80
2023-04-29T11:06:46.400Z,11.91
2023-04-29T11:09:16.960Z,12.08
2023-04-29T11:11:49.896Z,12.35
2023-04-29T11:14:26.320Z,12.44
2023-04-29T11:16:58.979Z,12.82
2023-04-29T11:19:32.830Z,12.85
2023-04-29T11:22:26.512Z,12.34
2023-04-29T11:24:58.079Z,12.59
2023-04-29T11:27:27.906Z,12.44
2023-04-29T11:29:58.860Z,12.31
2023-04-29T11:32:30.348Z,12.33
2023-04-29T11:35:09.925Z,12.13
2023-04-29T11:37:38.021Z,11.79
2023-04-29T11:40:07.907Z,11.70
2023-04-29T11:42:36.787Z,11.70
2023-04-29T11:45:06.995Z,11.94
2023-04-29T11:47:37.470Z,11.92
2023-04-29T11:50:06.417Z,11.61
2023-04-29T11:52:37.114Z,11.14
2023-04-29T11:55:07.674Z,10.74
2023-04-29T11:57:35.983Z,10.59
2023-04-29T12:00:07.385Z,10.67
2023-04-29T12:02:40.788Z,10.53
2023-04-29T12:05:10.247Z,10.59
2023-04-29T12:07:38.797Z,10.69
2023-04-29T12:10:10.918Z,10.67
2023-04-29T12:12:41.034Z,10.74
2023-04-29T12:15:10.665Z,10.59
2023-04-29T12:17:41.004Z,10.69
2023-04-29T12:20:12.035Z,10.96
2023-04-29T12:22:40.528Z,11.36
2023-04-29T12:25:09.843Z,11.57
2023-04-29T12:27:41.560Z,11.52
2023-04-29T12:30:11.412Z,11.70
2023-04-29T12:32:41.257Z,11.62
2023-04-29T12:35:17.596Z,11.56
2023-04-29T12:37:49.678Z,11.45
2023-04-29T12:40:20.459Z,11.28
2023-04-29T12:42:49.176Z,11.64
2023-04-29T12:45:31.743Z,11.94
2023-04-29T12:48:07.258Z,12.02
2023-04-29T12:50:39.284Z,12.12
2023-04-29T12:53:08.821Z,11.99
2023-04-29T12:55:38.462Z,11.75
2023-04-29T12:58:07.537Z,12.16
2023-04-29T13:00:37.552Z,12.40
2023-04-29T13:03:07.480Z,12.86
2023-04-29T13:05:36.268Z,13.28
2023-04-29T13:08:06.011Z,13.22
2023-04-29T13:10:34.918Z,13.38
2023-04-29T13:13:02.980Z,13.24
2023-04-29T13:15:31.456Z,12.70
2023-04-29T13:17:59.706Z,12.95
2023-04-29T13:20:29.582Z,12.18
2023-04-29T13:22:57.706Z,11.80
2023-04-29T13:25:25.874Z,11.24
2023-04-29T13:27:54.936Z,11.01
2023-04-29T13:30:23.835Z,11.01
2023-04-29T13:32:55.443Z,11.04
2023-04-29T13:35:27.183Z,11.00
2023-04-29T13:37:57.134Z,11.23
2023-04-29T13:40:28.060Z,11.24
2023-04-29T13:43:04.380Z,11.13
2023-04-29T13:45:38.883Z,10.95
2023-04-29T13:48:20.836Z,10.87
2023-04-29T13:59:08.656Z,10.75
2023-04-29T14:02:08.056Z,10.63
2023-04-29T14:04:07.036Z,10.29
2023-04-29T14:06:35.272Z,10.17
2023-04-29T14:09:05.031Z,10.05
2023-04-29T14:11:36.833Z,10.04
2023-04-29T14:14:05.609Z,10.05
2023-04-29T14:16:34.003Z,10.07
2023-04-29T14:19:03.938Z,10.17
2023-04-29T14:21:33.532Z,10.14
2023-04-29T14:24:03.441Z,10.18
2023-04-29T14:26:33.150Z,10.22
2023-04-29T14:29:01.464Z,10.36
2023-04-29T14:31:31.291Z,10.53
2023-04-29T14:34:00.423Z,10.19
2023-04-29T14:36:28.941Z,9.94
2023-04-29T14:38:57.197Z,9.79
2023-04-29T14:41:25.706Z,9.73
2023-04-29T14:43:55.306Z,9.52
2023-04-29T14:46:23.783Z,9.37
2023-04-29T14:48:52.014Z,9.19
2023-04-29T14:51:20.518Z,9.16
2023-04-29T14:53:48.721Z,9.21
2023-04-29T14:57:30.379Z,9.10
2023-04-29T15:04:04.606Z,8.80
2023-04-29T15:07:46.262Z,8.60
2023-04-29T15:42:31.087Z,7.82
2023-04-29T15:44:59.322Z,7.88
2023-04-29T15:47:27.604Z,7.80
2023-04-29T15:49:56.753Z,7.75
2023-04-29T15:52:25.154Z,7.81
2023-04-29T15:54:53.222Z,7.82
2023-04-29T15:57:21.485Z,7.79
2023-04-29T15:59:51.828Z,7.75
2023-04-29T16:02:21.285Z,7.82
2023-04-29T16:04:49.686Z,7.66
2023-04-29T16:07:18.393Z,7.74
2023-04-29T16:09:46.717Z,7.59
2023-04-29T16:12:15.118Z,7.63
2023-04-29T16:14:43.776Z,7.63
2023-04-29T16:17:13.832Z,7.63
2023-04-29T16:19:42.023Z,7.65
2023-04-29T16:22:10.264Z,7.79
2023-04-29T16:25:04.257Z,7.91
2023-04-29T16:27:32.613Z,7.94
2023-04-29T16:30:01.037Z,7.98
2023-04-29T16:32:31.535Z,7.99
2023-04-29T16:35:01.363Z,8.00
2023-04-29T16:37:33.322Z,8.02
2023-04-29T16:40:02.000Z,8.00
2023-04-29T16:42:30.129Z,8.02
2023-04-29T16:44:58.440Z,7.98
2023-04-29T16:47:27.662Z,8.01
2023-04-29T16:49:57.829Z,8.03
2023-04-29T16:52:26.029Z,8.04
2023-04-29T16:54:56.365Z,8.00
2023-04-29T16:57:26.633Z,8.00
2023-04-29T16:59:56.504Z,8.03
2023-04-29T17:02:25.087Z,8.07
2023-04-29T17:04:53.659Z,8.03
2023-04-29T17:07:23.961Z,8.09
2023-04-29T17:09:52.707Z,8.09
2023-04-29T17:12:21.044Z,8.08
2023-04-29T17:14:49.456Z,8.07
2023-04-29T17:17:18.098Z,8.01
2023-04-29T17:19:50.098Z,8.05
2023-04-29T17:22:18.520Z,8.02
2023-04-29T17:24:49.074Z,8.04
2023-04-29T17:27:17.415Z,8.00
2023-04-29T17:29:45.793Z,8.03
2023-04-29T17:32:17.319Z,7.97
2023-04-29T17:34:45.488Z,7.98
2023-04-29T17:37:14.097Z,7.93
2023-04-29T17:39:42.349Z,7.93
2023-04-29T17:42:12.174Z,7.89
2023-04-29T17:44:40.363Z,7.89
2023-04-29T17:47:11.021Z,7.82
2023-04-29T17:49:40.272Z,7.76
2023-04-29T17:52:08.944Z,7.76
2023-04-29T17:54:39.814Z,7.75
2023-04-29T17:57:08.744Z,7.75
2023-04-29T17:59:38.966Z,7.72
2023-04-29T18:02:07.281Z,7.74
2023-04-29T18:04:37.412Z,7.72
2023-04-29T18:07:06.763Z,7.72
2023-04-29T18:09:35.855Z,7.76
2023-04-29T18:12:05.047Z,7.77
2023-04-29T18:14:33.329Z,7.76
2023-04-29T18:17:03.331Z,7.77
2023-04-29T18:19:31.491Z,7.81
2023-04-29T18:22:01.420Z,7.79
2023-04-29T18:24:29.729Z,7.79
2023-04-29T18:26:58.280Z,7.77
2023-04-29T18:29:26.969Z,7.76
2023-04-29T18:31:55.940Z,7.82
2023-04-29T18:34:26.228Z,7.81
2023-04-29T18:36:54.924Z,7.90
2023-04-29T18:39:23.018Z,7.91
2023-04-29T18:41:51.190Z,7.92
2023-04-29T18:44:19.461Z,7.89
2023-04-29T18:46:47.552Z,7.77
2023-04-29T18:49:17.011Z,7.74
2023-04-29T18:51:47.509Z,7.64
2023-04-29T18:54:16.916Z,7.64
2023-04-29T18:56:47.428Z,7.69
2023-04-29T18:59:19.326Z,7.72
2023-04-29T19:01:49.000Z,7.73
2023-04-29T19:04:17.687Z,7.80
2023-04-29T19:06:48.190Z,7.78
2023-04-29T19:09:16.329Z,7.76
2023-04-29T19:11:44.364Z,7.72
2023-04-29T19:14:12.525Z,7.68
2023-04-29T19:16:40.624Z,7.67
2023-04-29T19:19:08.987Z,7.66
2023-04-29T19:21:37.878Z,7.63
2023-04-29T19:24:07.824Z,7.63
2023-04-29T19:26:36.809Z,7.65
2023-04-29T19:29:07.426Z,7.62
2023-04-29T19:31:35.721Z,7.60
2023-04-29T19:34:03.931Z,7.61
2023-04-29T19:36:33.258Z,7.58
2023-04-29T19:39:02.457Z,7.55
2023-04-29T19:41:34.712Z,7.55
2023-04-29T19:44:03.525Z,7.57
2023-04-29T19:46:31.880Z,7.57
2023-04-29T19:49:00.067Z,7.62
2023-04-29T19:51:28.709Z,7.63
2023-04-29T19:54:00.170Z,7.60
2023-04-29T19:56:28.367Z,7.66
2023-04-29T19:58:57.884Z,7.66
2023-04-29T20:01:26.129Z,7.71
2023-04-29T20:03:54.442Z,7.68
2023-04-29T20:06:22.607Z,7.70
2023-04-29T20:08:50.791Z,7.71
2023-04-29T20:11:18.826Z,7.70
2023-04-29T20:13:47.793Z,7.70
2023-04-29T20:16:17.577Z,7.66
2023-04-29T20:18:45.763Z,7.63
2023-04-29T20:21:14.373Z,7.61
2023-04-29T20:23:42.409Z,7.57
2023-04-29T20:26:10.994Z,7.58
2023-04-29T20:28:39.903Z,7.50
2023-04-29T20:31:08.649Z,7.53
2023-04-29T20:33:38.593Z,7.48
2023-04-29T20:36:07.530Z,7.45
2023-04-29T20:38:36.141Z,7.48
2023-04-29T20:41:05.656Z,7.54
2023-04-29T20:43:33.828Z,7.55
2023-04-29T20:46:03.140Z,7.54
2023-04-29T20:48:31.604Z,7.54
2023-04-29T20:51:01.575Z,7.53
2023-04-29T20:53:31.436Z,7.54
2023-04-29T20:56:00.159Z,7.55
2023-04-29T20:58:28.321Z,7.59
2023-04-29T21:00:56.578Z,7.61
2023-04-29T21:03:26.065Z,7.57
2023-04-29T21:05:55.227Z,7.58
2023-04-29T21:08:24.940Z,7.61
2023-04-29T21:10:53.217Z,7.59
2023-04-29T21:13:21.631Z,7.54
2023-04-29T21:15:49.837Z,7.54
2023-04-29T21:18:18.015Z,7.58
2023-04-29T21:20:46.435Z,7.55
2023-04-29T21:23:14.531Z,7.51
2023-04-29T21:25:44.233Z,7.53
2023-04-29T21:28:13.865Z,7.60
2023-04-29T21:30:43.052Z,7.60
2023-04-29T21:33:11.298Z,7.66
2023-04-29T21:35:42.268Z,7.62
2023-04-29T21:38:10.688Z,7.65
2023-04-29T21:40:42.851Z,7.59
2023-04-29T21:43:12.863Z,7.61
2023-04-29T21:45:41.887Z,7.64
2023-04-29T21:48:15.877Z,7.61
2023-04-29T21:50:44.865Z,7.67
2023-04-29T21:53:16.154Z,7.66
2023-04-29T21:55:45.109Z,7.63
2023-04-29T21:58:16.171Z,7.67
2023-04-29T22:00:58.117Z,7.62
2023-04-29T22:03:26.792Z,7.62
2023-04-29T22:05:55.186Z,7.53
2023-04-29T22:08:24.101Z,7.56
2023-04-29T22:10:52.281Z,7.55
2023-04-29T22:13:21.975Z,7.58
2023-04-29T22:15:50.143Z,7.59
2023-04-29T22:18:18.349Z,7.56
2023-04-29T22:20:46.397Z,7.53
2023-04-29T22:23:14.867Z,7.55
2023-04-29T22:25:43.079Z,7.49
2023-04-29T22:28:11.293Z,7.48
2023-04-29T22:30:42.927Z,7.45
2023-04-29T22:33:11.123Z,7.45
2023-04-29T22:35:39.332Z,7.45
2023-04-29T22:38:07.711Z,7.50
2023-04-29T22:40:37.052Z,7.49
2023-04-29T22:43:05.614Z,7.53
2023-04-29T22:45:33.649Z,7.58
2023-04-29T22:48:03.267Z,7.55
2023-04-29T22:50:31.407Z,7.53
2023-04-29T22:52:59.482Z,7.53
2023-04-29T22:55:27.811Z,7.54
2023-04-29T22:57:56.262Z,7.51
2023-04-29T23:00:24.613Z,7.53
2023-04-29T23:02:52.815Z,7.56
2023-04-29T23:05:22.626Z,7.54
2023-04-29T23:07:50.910Z,7.49
2023-04-29T23:10:19.165Z,7.44
2023-04-29T23:12:47.240Z,7.39
2023-04-29T23:15:15.351Z,7.36
2023-04-29T23:17:43.456Z,7.38
2023-04-29T23:20:13.311Z,7.35
2023-04-29T23:22:43.015Z,7.32
2023-04-29T23:25:11.074Z,7.31
2023-04-29T23:27:39.134Z,7.27
2023-04-29T23:30:08.956Z,7.28
2023-04-29T23:32:37.191Z,7.24
2023-04-29T23:35:05.724Z,7.21
2023-04-29T23:37:33.958Z,7.17
2023-04-29T23:40:04.819Z,7.07
2023-04-29T23:42:32.979Z,7.10
2023-04-29T23:45:01.278Z,7.02
2023-04-29T23:47:29.641Z,6.88
2023-04-29T23:49:57.661Z,6.78
2023-04-29T23:52:25.915Z,6.68
2023-04-29T23:54:53.965Z,6.67
2023-04-29T23:57:23.789Z,6.55
2023-04-29T23:59:53.207Z,6.43
